sensor_id;sensor_type;location;lat;lon;timestamp;P1;durP1;ratioP1;P2;durP2;ratioP2
48002;SDS011;33768;48.578;11.574;2023-05-07T00:01:45;1.90;;;1.70;;
48002;SDS011;33768;48.578;11.574;2023-05-07T00:04:49;2.33;;;1.63;;
48002;SDS011;33768;48.578;11.574;2023-05-07T00:07:53;2.43;;;1.77;;
48002;SDS011;33768;48.578;11.574;2023-05-07T00:10:57;4.67;;;2.00;;
48002;SDS011;33768;48.578;11.574;2023-05-07T00:14:01;2.63;;;2.03;;
48002;SDS011;33768;48.578;11.574;2023-05-07T00:17:05;2.33;;;1.90;;
48002;SDS011;33768;48.578;11.574;2023-05-07T00:20:10;2.20;;;2.00;;
48002;SDS011;33768;48.578;11.574;2023-05-07T00:23:14;3.57;;;1.70;;
48002;SDS011;33768;48.578;11.574;2023-05-07T00:26:18;3.13;;;1.63;;
48002;SDS011;33768;48.578;11.574;2023-05-07T00:29:25;3.60;;;2.00;;
48002;SDS011;33768;48.578;11.574;2023-05-07T00:32:29;4.20;;;2.13;;
48002;SDS011;33768;48.578;11.574;2023-05-07T00:35:33;2.33;;;1.83;;
48002;SDS011;33768;48.578;11.574;2023-05-07T00:38:37;2.83;;;2.00;;
48002;SDS011;33768;48.578;11.574;2023-05-07T00:41:42;2.20;;;1.93;;
48002;SDS011;33768;48.578;11.574;2023-05-07T00:44:46;1.70;;;1.50;;
48002;SDS011;33768;48.578;11.574;2023-05-07T00:47:50;3.30;;;1.90;;
48002;SDS011;33768;48.578;11.574;2023-05-07T00:50:54;4.70;;;2.20;;
48002;SDS011;33768;48.578;11.574;2023-05-07T00:53:59;3.93;;;2.03;;
48002;SDS011;33768;48.578;11.574;2023-05-07T00:57:04;2.00;;;1.83;;
48002;SDS011;33768;48.578;11.574;2023-05-07T01:00:09;4.40;;;2.10;;
48002;SDS011;33768;48.578;11.574;2023-05-07T01:03:15;3.93;;;2.10;;
48002;SDS011;33768;48.578;11.574;2023-05-07T01:06:20;2.97;;;2.30;;
48002;SDS011;33768;48.578;11.574;2023-05-07T01:09:25;2.70;;;2.10;;
48002;SDS011;33768;48.578;11.574;2023-05-07T01:12:30;3.80;;;1.93;;
48002;SDS011;33768;48.578;11.574;2023-05-07T01:15:35;2.63;;;2.00;;
48002;SDS011;33768;48.578;11.574;2023-05-07T01:18:39;3.07;;;2.00;;
48002;SDS011;33768;48.578;11.574;2023-05-07T01:21:45;2.10;;;1.90;;
48002;SDS011;33768;48.578;11.574;2023-05-07T01:24:51;4.53;;;2.13;;
48002;SDS011;33768;48.578;11.574;2023-05-07T01:27:56;4.33;;;2.17;;
48002;SDS011;33768;48.578;11.574;2023-05-07T01:31:04;3.50;;;2.03;;
48002;SDS011;33768;48.578;11.574;2023-05-07T01:34:10;4.20;;;2.20;;
48002;SDS011;33768;48.578;11.574;2023-05-07T01:37:16;4.13;;;2.13;;
48002;SDS011;33768;48.578;11.574;2023-05-07T01:40:20;2.20;;;2.00;;
48002;SDS011;33768;48.578;11.574;2023-05-07T01:43:25;2.70;;;2.27;;
48002;SDS011;33768;48.578;11.574;2023-05-07T01:46:30;2.87;;;2.07;;
48002;SDS011;33768;48.578;11.574;2023-05-07T01:49:35;2.70;;;2.37;;
48002;SDS011;33768;48.578;11.574;2023-05-07T01:52:39;3.20;;;2.30;;
48002;SDS011;33768;48.578;11.574;2023-05-07T01:55:43;2.60;;;2.40;;
48002;SDS011;33768;48.578;11.574;2023-05-07T01:58:47;3.87;;;2.20;;
48002;SDS011;33768;48.578;11.574;2023-05-07T02:01:52;2.70;;;2.33;;
48002;SDS011;33768;48.578;11.574;2023-05-07T02:04:57;4.07;;;2.33;;
48002;SDS011;33768;48.578;11.574;2023-05-07T02:08:02;4.07;;;2.10;;
48002;SDS011;33768;48.578;11.574;2023-05-07T02:11:08;3.17;;;2.40;;
48002;SDS011;33768;48.578;11.574;2023-05-07T02:14:13;4.27;;;2.40;;
48002;SDS011;33768;48.578;11.574;2023-05-07T02:17:17;2.73;;;2.10;;
48002;SDS011;33768;48.578;11.574;2023-05-07T02:20:22;4.53;;;2.53;;
48002;SDS011;33768;48.578;11.574;2023-05-07T02:23:26;2.40;;;2.20;;
48002;SDS011;33768;48.578;11.574;2023-05-07T02:26:30;2.30;;;2.10;;
48002;SDS011;33768;48.578;11.574;2023-05-07T02:29:34;5.53;;;3.00;;
48002;SDS011;33768;48.578;11.574;2023-05-07T02:32:38;6.43;;;2.30;;
48002;SDS011;33768;48.578;11.574;2023-05-07T02:35:43;2.47;;;2.20;;
48002;SDS011;33768;48.578;11.574;2023-05-07T02:38:48;2.70;;;2.30;;
48002;SDS011;33768;48.578;11.574;2023-05-07T02:41:52;3.50;;;2.50;;
48002;SDS011;33768;48.578;11.574;2023-05-07T02:44:58;2.50;;;2.30;;
48002;SDS011;33768;48.578;11.574;2023-05-07T02:48:02;3.67;;;2.60;;
48002;SDS011;33768;48.578;11.574;2023-05-07T02:51:07;3.10;;;2.33;;
48002;SDS011;33768;48.578;11.574;2023-05-07T02:54:12;3.83;;;2.23;;
48002;SDS011;33768;48.578;11.574;2023-05-07T02:57:17;3.27;;;2.43;;
48002;SDS011;33768;48.578;11.574;2023-05-07T03:00:21;2.70;;;2.30;;
48002;SDS011;33768;48.578;11.574;2023-05-07T03:03:33;2.60;;;2.40;;
48002;SDS011;33768;48.578;11.574;2023-05-07T03:06:37;2.60;;;2.40;;
48002;SDS011;33768;48.578;11.574;2023-05-07T03:09:41;2.67;;;2.37;;
48002;SDS011;33768;48.578;11.574;2023-05-07T03:12:45;2.70;;;2.50;;
48002;SDS011;33768;48.578;11.574;2023-05-07T03:15:53;5.30;;;2.80;;
48002;SDS011;33768;48.578;11.574;2023-05-07T03:18:57;2.87;;;2.47;;
48002;SDS011;33768;48.578;11.574;2023-05-07T03:22:02;3.97;;;2.77;;
48002;SDS011;33768;48.578;11.574;2023-05-07T03:25:06;3.83;;;2.57;;
48002;SDS011;33768;48.578;11.574;2023-05-07T03:28:12;3.77;;;2.47;;
48002;SDS011;33768;48.578;11.574;2023-05-07T03:31:28;3.07;;;2.77;;
48002;SDS011;33768;48.578;11.574;2023-05-07T03:34:33;5.73;;;2.87;;
48002;SDS011;33768;48.578;11.574;2023-05-07T03:37:37;3.20;;;2.67;;
48002;SDS011;33768;48.578;11.574;2023-05-07T03:40:42;3.90;;;2.73;;
48002;SDS011;33768;48.578;11.574;2023-05-07T03:43:46;5.77;;;2.90;;
48002;SDS011;33768;48.578;11.574;2023-05-07T03:46:51;3.83;;;3.17;;
48002;SDS011;33768;48.578;11.574;2023-05-07T03:49:55;4.97;;;2.90;;
48002;SDS011;33768;48.578;11.574;2023-05-07T03:53:01;3.93;;;2.57;;
48002;SDS011;33768;48.578;11.574;2023-05-07T03:56:07;3.43;;;2.70;;
48002;SDS011;33768;48.578;11.574;2023-05-07T03:59:15;3.33;;;2.43;;
48002;SDS011;33768;48.578;11.574;2023-05-07T04:02:21;5.73;;;2.93;;
48002;SDS011;33768;48.578;11.574;2023-05-07T04:05:25;3.43;;;2.87;;
48002;SDS011;33768;48.578;11.574;2023-05-07T04:08:34;3.23;;;2.87;;
48002;SDS011;33768;48.578;11.574;2023-05-07T04:11:38;3.63;;;2.70;;
48002;SDS011;33768;48.578;11.574;2023-05-07T04:14:45;6.30;;;3.23;;
48002;SDS011;33768;48.578;11.574;2023-05-07T04:17:50;3.80;;;3.07;;
48002;SDS011;33768;48.578;11.574;2023-05-07T04:20:57;3.27;;;2.90;;
48002;SDS011;33768;48.578;11.574;2023-05-07T04:24:02;4.07;;;3.07;;
48002;SDS011;33768;48.578;11.574;2023-05-07T04:27:07;2.93;;;2.73;;
48002;SDS011;33768;48.578;11.574;2023-05-07T04:30:11;3.10;;;2.80;;
48002;SDS011;33768;48.578;11.574;2023-05-07T04:33:16;3.10;;;2.50;;
48002;SDS011;33768;48.578;11.574;2023-05-07T04:36:22;2.87;;;2.50;;
48002;SDS011;33768;48.578;11.574;2023-05-07T04:39:36;2.90;;;2.47;;
48002;SDS011;33768;48.578;11.574;2023-05-07T04:42:41;3.03;;;2.40;;
48002;SDS011;33768;48.578;11.574;2023-05-07T04:45:45;5.10;;;2.60;;
48002;SDS011;33768;48.578;11.574;2023-05-07T04:48:49;4.90;;;2.83;;
48002;SDS011;33768;48.578;11.574;2023-05-07T04:51:53;3.17;;;2.87;;
48002;SDS011;33768;48.578;11.574;2023-05-07T04:55:00;6.40;;;2.97;;
48002;SDS011;33768;48.578;11.574;2023-05-07T04:58:07;4.37;;;3.20;;
48002;SDS011;33768;48.578;11.574;2023-05-07T05:01:13;3.10;;;2.80;;
48002;SDS011;33768;48.578;11.574;2023-05-07T05:04:18;4.27;;;2.90;;
48002;SDS011;33768;48.578;11.574;2023-05-07T05:07:22;6.43;;;3.23;;
48002;SDS011;33768;48.578;11.574;2023-05-07T05:10:26;4.00;;;3.43;;
48002;SDS011;33768;48.578;11.574;2023-05-07T05:13:30;7.20;;;3.63;;
48002;SDS011;33768;48.578;11.574;2023-05-07T05:16:35;4.80;;;4.03;;
48002;SDS011;33768;48.578;11.574;2023-05-07T05:19:39;7.53;;;5.10;;
48002;SDS011;33768;48.578;11.574;2023-05-07T05:22:43;7.73;;;4.70;;
48002;SDS011;33768;48.578;11.574;2023-05-07T05:25:49;5.00;;;4.20;;
48002;SDS011;33768;48.578;11.574;2023-05-07T05:28:53;6.07;;;4.10;;
48002;SDS011;33768;48.578;11.574;2023-05-07T05:32:00;5.20;;;3.80;;
48002;SDS011;33768;48.578;11.574;2023-05-07T05:35:07;5.13;;;3.70;;
48002;SDS011;33768;48.578;11.574;2023-05-07T05:38:11;4.23;;;3.77;;
48002;SDS011;33768;48.578;11.574;2023-05-07T05:41:18;9.67;;;3.70;;
48002;SDS011;33768;48.578;11.574;2023-05-07T05:44:22;4.10;;;3.63;;
48002;SDS011;33768;48.578;11.574;2023-05-07T05:47:26;26.37;;;16.20;;
48002;SDS011;33768;48.578;11.574;2023-05-07T05:50:32;9.67;;;5.73;;
48002;SDS011;33768;48.578;11.574;2023-05-07T05:53:37;5.57;;;4.47;;
48002;SDS011;33768;48.578;11.574;2023-05-07T05:56:41;4.60;;;4.03;;
48002;SDS011;33768;48.578;11.574;2023-05-07T05:59:46;4.20;;;3.80;;
48002;SDS011;33768;48.578;11.574;2023-05-07T06:02:51;6.07;;;3.43;;
48002;SDS011;33768;48.578;11.574;2023-05-07T06:06:00;10.53;;;4.77;;
48002;SDS011;33768;48.578;11.574;2023-05-07T06:09:04;6.30;;;3.87;;
48002;SDS011;33768;48.578;11.574;2023-05-07T06:12:15;6.30;;;4.00;;
48002;SDS011;33768;48.578;11.574;2023-05-07T06:15:19;5.03;;;3.67;;
48002;SDS011;33768;48.578;11.574;2023-05-07T06:18:25;7.17;;;3.63;;
48002;SDS011;33768;48.578;11.574;2023-05-07T06:21:29;6.23;;;3.53;;
48002;SDS011;33768;48.578;11.574;2023-05-07T06:24:34;4.43;;;3.83;;
48002;SDS011;33768;48.578;11.574;2023-05-07T06:27:38;5.67;;;4.17;;
48002;SDS011;33768;48.578;11.574;2023-05-07T06:30:43;10.53;;;4.67;;
48002;SDS011;33768;48.578;11.574;2023-05-07T06:33:48;9.40;;;4.93;;
48002;SDS011;33768;48.578;11.574;2023-05-07T06:36:53;4.37;;;3.67;;
48002;SDS011;33768;48.578;11.574;2023-05-07T06:40:17;4.40;;;3.17;;
48002;SDS011;33768;48.578;11.574;2023-05-07T06:43:22;5.27;;;3.80;;
48002;SDS011;33768;48.578;11.574;2023-05-07T06:46:32;5.83;;;3.60;;
48002;SDS011;33768;48.578;11.574;2023-05-07T06:49:36;4.70;;;3.87;;
48002;SDS011;33768;48.578;11.574;2023-05-07T06:52:41;6.57;;;4.10;;
48002;SDS011;33768;48.578;11.574;2023-05-07T06:55:45;4.87;;;3.33;;
48002;SDS011;33768;48.578;11.574;2023-05-07T06:58:50;4.17;;;3.50;;
48002;SDS011;33768;48.578;11.574;2023-05-07T07:01:55;5.13;;;4.63;;
48002;SDS011;33768;48.578;11.574;2023-05-07T07:05:00;6.90;;;4.43;;
48002;SDS011;33768;48.578;11.574;2023-05-07T07:08:04;5.60;;;4.40;;
48002;SDS011;33768;48.578;11.574;2023-05-07T07:11:09;4.97;;;4.47;;
48002;SDS011;33768;48.578;11.574;2023-05-07T07:14:14;5.07;;;4.53;;
48002;SDS011;33768;48.578;11.574;2023-05-07T07:17:24;5.40;;;4.30;;
48002;SDS011;33768;48.578;11.574;2023-05-07T07:20:29;4.73;;;4.20;;
48002;SDS011;33768;48.578;11.574;2023-05-07T07:23:34;6.10;;;4.60;;
48002;SDS011;33768;48.578;11.574;2023-05-07T07:26:38;5.73;;;4.37;;
48002;SDS011;33768;48.578;11.574;2023-05-07T07:29:44;7.90;;;4.47;;
48002;SDS011;33768;48.578;11.574;2023-05-07T07:32:49;5.00;;;3.87;;
48002;SDS011;33768;48.578;11.574;2023-05-07T07:35:55;7.33;;;4.40;;
48002;SDS011;33768;48.578;11.574;2023-05-07T07:38:59;5.47;;;4.10;;
48002;SDS011;33768;48.578;11.574;2023-05-07T07:42:03;6.00;;;3.70;;
48002;SDS011;33768;48.578;11.574;2023-05-07T07:45:08;3.77;;;3.47;;
48002;SDS011;33768;48.578;11.574;2023-05-07T07:48:16;4.10;;;3.60;;
48002;SDS011;33768;48.578;11.574;2023-05-07T07:51:20;3.57;;;3.27;;
48002;SDS011;33768;48.578;11.574;2023-05-07T07:54:25;6.07;;;3.37;;
48002;SDS011;33768;48.578;11.574;2023-05-07T07:57:29;3.97;;;3.13;;
48002;SDS011;33768;48.578;11.574;2023-05-07T08:00:33;3.43;;;3.10;;
48002;SDS011;33768;48.578;11.574;2023-05-07T08:03:38;4.87;;;3.67;;
48002;SDS011;33768;48.578;11.574;2023-05-07T08:06:42;4.20;;;3.30;;
48002;SDS011;33768;48.578;11.574;2023-05-07T08:09:47;3.83;;;3.50;;
48002;SDS011;33768;48.578;11.574;2023-05-07T08:12:54;3.30;;;3.00;;
48002;SDS011;33768;48.578;11.574;2023-05-07T08:15:58;5.37;;;2.73;;
48002;SDS011;33768;48.578;11.574;2023-05-07T08:19:02;3.40;;;2.80;;
48002;SDS011;33768;48.578;11.574;2023-05-07T08:22:07;4.00;;;2.53;;
48002;SDS011;33768;48.578;11.574;2023-05-07T08:25:12;6.77;;;3.23;;
48002;SDS011;33768;48.578;11.574;2023-05-07T08:28:16;3.92;;;3.35;;
48002;SDS011;33768;48.578;11.574;2023-05-07T08:31:20;4.93;;;2.63;;
48002;SDS011;33768;48.578;11.574;2023-05-07T08:34:25;6.55;;;2.80;;
48002;SDS011;33768;48.578;11.574;2023-05-07T08:37:30;4.28;;;2.63;;
48002;SDS011;33768;48.578;11.574;2023-05-07T08:40:36;4.25;;;2.78;;
48002;SDS011;33768;48.578;11.574;2023-05-07T08:43:45;4.07;;;2.55;;
48002;SDS011;33768;48.578;11.574;2023-05-07T08:46:52;5.65;;;2.60;;
48002;SDS011;33768;48.578;11.574;2023-05-07T08:49:58;3.72;;;2.80;;
48002;SDS011;33768;48.578;11.574;2023-05-07T08:53:03;4.25;;;2.38;;
48002;SDS011;33768;48.578;11.574;2023-05-07T08:56:09;3.10;;;2.33;;
48002;SDS011;33768;48.578;11.574;2023-05-07T08:59:13;2.60;;;2.13;;
48002;SDS011;33768;48.578;11.574;2023-05-07T09:02:19;4.70;;;2.58;;
48002;SDS011;33768;48.578;11.574;2023-05-07T09:05:23;3.50;;;2.25;;
48002;SDS011;33768;48.578;11.574;2023-05-07T09:08:28;4.85;;;2.30;;
48002;SDS011;33768;48.578;11.574;2023-05-07T09:11:36;2.40;;;2.05;;
48002;SDS011;33768;48.578;11.574;2023-05-07T09:14:40;11.18;;;2.50;;
48002;SDS011;33768;48.578;11.574;2023-05-07T09:17:44;3.53;;;2.00;;
48002;SDS011;33768;48.578;11.574;2023-05-07T09:20:49;6.18;;;2.10;;
48002;SDS011;33768;48.578;11.574;2023-05-07T09:23:56;3.30;;;2.20;;
48002;SDS011;33768;48.578;11.574;2023-05-07T09:27:07;3.60;;;1.80;;
48002;SDS011;33768;48.578;11.574;2023-05-07T09:30:12;2.20;;;1.80;;
48002;SDS011;33768;48.578;11.574;2023-05-07T09:33:17;1.77;;;1.60;;
48002;SDS011;33768;48.578;11.574;2023-05-07T09:36:25;2.95;;;1.70;;
48002;SDS011;33768;48.578;11.574;2023-05-07T09:39:44;3.80;;;1.65;;
48002;SDS011;33768;48.578;11.574;2023-05-07T09:42:53;1.98;;;1.70;;
48002;SDS011;33768;48.578;11.574;2023-05-07T09:45:58;2.65;;;1.70;;
48002;SDS011;33768;48.578;11.574;2023-05-07T09:49:05;2.05;;;1.65;;
48002;SDS011;33768;48.578;11.574;2023-05-07T09:52:15;2.97;;;1.90;;
48002;SDS011;33768;48.578;11.574;2023-05-07T09:55:26;2.38;;;1.70;;
48002;SDS011;33768;48.578;11.574;2023-05-07T09:58:31;2.72;;;1.60;;
48002;SDS011;33768;48.578;11.574;2023-05-07T10:01:37;17.83;;;2.05;;
48002;SDS011;33768;48.578;11.574;2023-05-07T10:04:44;2.17;;;1.55;;
48002;SDS011;33768;48.578;11.574;2023-05-07T10:07:49;2.63;;;1.50;;
48002;SDS011;33768;48.578;11.574;2023-05-07T10:10:55;3.78;;;1.50;;
48002;SDS011;33768;48.578;11.574;2023-05-07T10:14:02;1.73;;;1.45;;
48002;SDS011;33768;48.578;11.574;2023-05-07T10:17:10;2.92;;;1.38;;
48002;SDS011;33768;48.578;11.574;2023-05-07T10:20:17;3.05;;;1.60;;
48002;SDS011;33768;48.578;11.574;2023-05-07T10:23:23;1.65;;;1.50;;
48002;SDS011;33768;48.578;11.574;2023-05-07T10:26:31;4.88;;;1.45;;
48002;SDS011;33768;48.578;11.574;2023-05-07T10:33:08;2.47;;;1.55;;
48002;SDS011;33768;48.578;11.574;2023-05-07T10:36:20;4.35;;;1.35;;
48002;SDS011;33768;48.578;11.574;2023-05-07T10:39:26;3.13;;;2.00;;
48002;SDS011;33768;48.578;11.574;2023-05-07T10:42:31;4.18;;;1.85;;
48002;SDS011;33768;48.578;11.574;2023-05-07T10:45:36;4.00;;;1.98;;
48002;SDS011;33768;48.578;11.574;2023-05-07T10:52:35;1.92;;;1.60;;
48002;SDS011;33768;48.578;11.574;2023-05-07T10:55:46;2.05;;;1.52;;
48002;SDS011;33768;48.578;11.574;2023-05-07T10:59:16;2.42;;;1.67;;
48002;SDS011;33768;48.578;11.574;2023-05-07T11:06:16;3.22;;;1.45;;
48002;SDS011;33768;48.578;11.574;2023-05-07T11:09:25;2.10;;;1.23;;
48002;SDS011;33768;48.578;11.574;2023-05-07T11:12:54;1.58;;;1.35;;
48002;SDS011;33768;48.578;11.574;2023-05-07T11:16:16;1.75;;;1.40;;
48002;SDS011;33768;48.578;11.574;2023-05-07T11:22:53;2.78;;;1.38;;
48002;SDS011;33768;48.578;11.574;2023-05-07T11:26:08;3.17;;;1.50;;
48002;SDS011;33768;48.578;11.574;2023-05-07T11:29:17;2.33;;;1.45;;
48002;SDS011;33768;48.578;11.574;2023-05-07T11:32:24;1.85;;;1.52;;
48002;SDS011;33768;48.578;11.574;2023-05-07T11:35:31;2.83;;;1.65;;
48002;SDS011;33768;48.578;11.574;2023-05-07T11:38:37;2.92;;;1.60;;
48002;SDS011;33768;48.578;11.574;2023-05-07T11:41:42;1.77;;;1.23;;
48002;SDS011;33768;48.578;11.574;2023-05-07T11:44:46;2.00;;;1.42;;
48002;SDS011;33768;48.578;11.574;2023-05-07T11:47:52;1.45;;;1.10;;
48002;SDS011;33768;48.578;11.574;2023-05-07T11:51:00;3.22;;;1.45;;
48002;SDS011;33768;48.578;11.574;2023-05-07T11:54:06;4.45;;;1.42;;
48002;SDS011;33768;48.578;11.574;2023-05-07T11:57:14;1.50;;;1.38;;
48002;SDS011;33768;48.578;11.574;2023-05-07T12:00:19;2.65;;;1.33;;
48002;SDS011;33768;48.578;11.574;2023-05-07T12:03:23;1.88;;;1.45;;
48002;SDS011;33768;48.578;11.574;2023-05-07T12:06:28;1.38;;;1.10;;
48002;SDS011;33768;48.578;11.574;2023-05-07T12:09:32;2.72;;;1.25;;
48002;SDS011;33768;48.578;11.574;2023-05-07T12:12:40;2.72;;;1.35;;
48002;SDS011;33768;48.578;11.574;2023-05-07T12:15:55;5.30;;;1.40;;
48002;SDS011;33768;48.578;11.574;2023-05-07T12:18:59;2.47;;;1.30;;
48002;SDS011;33768;48.578;11.574;2023-05-07T12:22:04;3.80;;;1.40;;
48002;SDS011;33768;48.578;11.574;2023-05-07T12:25:09;1.65;;;1.30;;
48002;SDS011;33768;48.578;11.574;2023-05-07T12:28:17;1.73;;;1.02;;
48002;SDS011;33768;48.578;11.574;2023-05-07T12:31:21;1.52;;;1.10;;
48002;SDS011;33768;48.578;11.574;2023-05-07T12:34:25;1.63;;;1.15;;
48002;SDS011;33768;48.578;11.574;2023-05-07T12:37:29;1.20;;;1.10;;
48002;SDS011;33768;48.578;11.574;2023-05-07T12:40:37;2.25;;;1.50;;
48002;SDS011;33768;48.578;11.574;2023-05-07T12:43:46;4.30;;;1.33;;
48002;SDS011;33768;48.578;11.574;2023-05-07T12:46:51;3.40;;;1.45;;
48002;SDS011;33768;48.578;11.574;2023-05-07T12:49:55;4.05;;;1.20;;
48002;SDS011;33768;48.578;11.574;2023-05-07T12:52:59;5.95;;;1.40;;
48002;SDS011;33768;48.578;11.574;2023-05-07T12:56:04;3.65;;;1.50;;
48002;SDS011;33768;48.578;11.574;2023-05-07T12:59:09;1.30;;;1.05;;
48002;SDS011;33768;48.578;11.574;2023-05-07T13:02:13;2.20;;;1.13;;
48002;SDS011;33768;48.578;11.574;2023-05-07T13:05:19;1.80;;;1.20;;
48002;SDS011;33768;48.578;11.574;2023-05-07T13:08:27;3.30;;;1.10;;
48002;SDS011;33768;48.578;11.574;2023-05-07T13:11:36;4.53;;;1.20;;
48002;SDS011;33768;48.578;11.574;2023-05-07T13:14:40;3.08;;;1.40;;
48002;SDS011;33768;48.578;11.574;2023-05-07T13:17:44;1.40;;;1.30;;
48002;SDS011;33768;48.578;11.574;2023-05-07T13:20:48;1.38;;;1.27;;
48002;SDS011;33768;48.578;11.574;2023-05-07T13:23:53;2.45;;;1.30;;
48002;SDS011;33768;48.578;11.574;2023-05-07T13:26:57;2.40;;;1.27;;
48002;SDS011;33768;48.578;11.574;2023-05-07T13:30:01;2.33;;;1.20;;
48002;SDS011;33768;48.578;11.574;2023-05-07T13:33:05;1.90;;;1.20;;
48002;SDS011;33768;48.578;11.574;2023-05-07T13:36:09;2.10;;;1.30;;
48002;SDS011;33768;48.578;11.574;2023-05-07T13:39:13;1.77;;;1.33;;
48002;SDS011;33768;48.578;11.574;2023-05-07T13:42:17;1.73;;;1.17;;
48002;SDS011;33768;48.578;11.574;2023-05-07T13:45:21;4.30;;;1.25;;
48002;SDS011;33768;48.578;11.574;2023-05-07T13:48:29;2.85;;;1.30;;
48002;SDS011;33768;48.578;11.574;2023-05-07T13:51:33;2.33;;;1.30;;
48002;SDS011;33768;48.578;11.574;2023-05-07T13:54:37;1.23;;;1.05;;
48002;SDS011;33768;48.578;11.574;2023-05-07T13:57:42;1.58;;;1.00;;
48002;SDS011;33768;48.578;11.574;2023-05-07T14:00:46;10.65;;;1.17;;
48002;SDS011;33768;48.578;11.574;2023-05-07T14:03:50;1.73;;;1.05;;
48002;SDS011;33768;48.578;11.574;2023-05-07T14:06:54;1.20;;;1.10;;
48002;SDS011;33768;48.578;11.574;2023-05-07T14:09:58;1.83;;;1.10;;
48002;SDS011;33768;48.578;11.574;2023-05-07T14:13:02;1.60;;;1.20;;
48002;SDS011;33768;48.578;11.574;2023-05-07T14:16:06;2.30;;;1.10;;
48002;SDS011;33768;48.578;11.574;2023-05-07T14:19:11;2.10;;;1.20;;
48002;SDS011;33768;48.578;11.574;2023-05-07T14:22:15;2.60;;;1.15;;
48002;SDS011;33768;48.578;11.574;2023-05-07T14:25:19;3.20;;;1.30;;
48002;SDS011;33768;48.578;11.574;2023-05-07T14:28:27;1.73;;;1.20;;
48002;SDS011;33768;48.578;11.574;2023-05-07T14:31:31;2.33;;;1.15;;
48002;SDS011;33768;48.578;11.574;2023-05-07T14:34:36;1.90;;;1.37;;
48002;SDS011;33768;48.578;11.574;2023-05-07T14:37:40;1.57;;;1.30;;
48002;SDS011;33768;48.578;11.574;2023-05-07T14:40:45;4.00;;;2.13;;
48002;SDS011;33768;48.578;11.574;2023-05-07T14:43:49;2.23;;;1.50;;
48002;SDS011;33768;48.578;11.574;2023-05-07T14:46:53;1.97;;;1.50;;
48002;SDS011;33768;48.578;11.574;2023-05-07T14:49:58;1.87;;;1.17;;
48002;SDS011;33768;48.578;11.574;2023-05-07T14:53:04;1.70;;;1.30;;
48002;SDS011;33768;48.578;11.574;2023-05-07T14:56:08;1.37;;;1.27;;
48002;SDS011;33768;48.578;11.574;2023-05-07T14:59:12;2.83;;;1.20;;
48002;SDS011;33768;48.578;11.574;2023-05-07T15:02:16;2.77;;;1.30;;
48002;SDS011;33768;48.578;11.574;2023-05-07T15:05:21;3.83;;;1.40;;
48002;SDS011;33768;48.578;11.574;2023-05-07T15:08:25;2.03;;;1.50;;
48002;SDS011;33768;48.578;11.574;2023-05-07T15:11:29;4.27;;;1.47;;
48002;SDS011;33768;48.578;11.574;2023-05-07T15:14:33;3.93;;;1.50;;
48002;SDS011;33768;48.578;11.574;2023-05-07T15:17:38;2.77;;;1.30;;
48002;SDS011;33768;48.578;11.574;2023-05-07T15:20:42;1.80;;;1.60;;
48002;SDS011;33768;48.578;11.574;2023-05-07T15:23:46;3.30;;;1.40;;
48002;SDS011;33768;48.578;11.574;2023-05-07T15:26:51;7.03;;;1.80;;
48002;SDS011;33768;48.578;11.574;2023-05-07T15:29:56;2.77;;;1.43;;
48002;SDS011;33768;48.578;11.574;2023-05-07T15:33:01;7.10;;;1.63;;
48002;SDS011;33768;48.578;11.574;2023-05-07T15:36:06;2.47;;;1.67;;
48002;SDS011;33768;48.578;11.574;2023-05-07T15:39:10;2.77;;;1.70;;
48002;SDS011;33768;48.578;11.574;2023-05-07T15:42:14;2.70;;;1.50;;
48002;SDS011;33768;48.578;11.574;2023-05-07T15:45:18;2.50;;;1.50;;
48002;SDS011;33768;48.578;11.574;2023-05-07T15:48:22;1.63;;;1.40;;
48002;SDS011;33768;48.578;11.574;2023-05-07T15:51:27;3.57;;;1.67;;
48002;SDS011;33768;48.578;11.574;2023-05-07T15:54:32;15.20;;;1.70;;
48002;SDS011;33768;48.578;11.574;2023-05-07T15:57:36;3.37;;;1.47;;
48002;SDS011;33768;48.578;11.574;2023-05-07T16:00:41;6.13;;;1.40;;
48002;SDS011;33768;48.578;11.574;2023-05-07T16:03:45;5.83;;;1.53;;
48002;SDS011;33768;48.578;11.574;2023-05-07T16:06:49;37.27;;;4.23;;
48002;SDS011;33768;48.578;11.574;2023-05-07T16:09:53;3.67;;;1.70;;
48002;SDS011;33768;48.578;11.574;2023-05-07T16:12:57;1.93;;;1.53;;
48002;SDS011;33768;48.578;11.574;2023-05-07T16:16:01;1.70;;;1.30;;
48002;SDS011;33768;48.578;11.574;2023-05-07T16:19:06;2.47;;;1.50;;
48002;SDS011;33768;48.578;11.574;2023-05-07T16:22:13;5.60;;;1.67;;
48002;SDS011;33768;48.578;11.574;2023-05-07T16:25:18;5.03;;;2.00;;
48002;SDS011;33768;48.578;11.574;2023-05-07T16:28:22;2.40;;;1.40;;
48002;SDS011;33768;48.578;11.574;2023-05-07T16:31:26;2.80;;;1.60;;
48002;SDS011;33768;48.578;11.574;2023-05-07T16:34:30;5.23;;;1.80;;
48002;SDS011;33768;48.578;11.574;2023-05-07T16:37:34;11.27;;;1.93;;
48002;SDS011;33768;48.578;11.574;2023-05-07T16:40:38;3.30;;;1.87;;
48002;SDS011;33768;48.578;11.574;2023-05-07T16:43:42;2.80;;;1.67;;
48002;SDS011;33768;48.578;11.574;2023-05-07T16:46:47;3.10;;;1.70;;
48002;SDS011;33768;48.578;11.574;2023-05-07T16:49:51;2.53;;;1.83;;
48002;SDS011;33768;48.578;11.574;2023-05-07T16:52:55;2.57;;;1.70;;
48002;SDS011;33768;48.578;11.574;2023-05-07T16:56:03;3.03;;;1.97;;
48002;SDS011;33768;48.578;11.574;2023-05-07T16:59:08;4.30;;;2.40;;
48002;SDS011;33768;48.578;11.574;2023-05-07T17:02:12;3.17;;;2.50;;
48002;SDS011;33768;48.578;11.574;2023-05-07T17:05:16;4.83;;;2.43;;
48002;SDS011;33768;48.578;11.574;2023-05-07T17:08:22;2.70;;;2.20;;
48002;SDS011;33768;48.578;11.574;2023-05-07T17:11:26;5.53;;;2.70;;
48002;SDS011;33768;48.578;11.574;2023-05-07T17:14:33;14.03;;;3.20;;
48002;SDS011;33768;48.578;11.574;2023-05-07T17:17:38;6.33;;;2.40;;
48002;SDS011;33768;48.578;11.574;2023-05-07T17:20:42;5.03;;;2.70;;
48002;SDS011;33768;48.578;11.574;2023-05-07T17:23:46;13.00;;;3.50;;
48002;SDS011;33768;48.578;11.574;2023-05-07T17:26:50;6.47;;;3.30;;
48002;SDS011;33768;48.578;11.574;2023-05-07T17:29:54;3.60;;;3.07;;
48002;SDS011;33768;48.578;11.574;2023-05-07T17:32:58;3.77;;;3.17;;
48002;SDS011;33768;48.578;11.574;2023-05-07T17:36:02;3.37;;;2.93;;
48002;SDS011;33768;48.578;11.574;2023-05-07T17:39:06;4.37;;;3.13;;
48002;SDS011;33768;48.578;11.574;2023-05-07T17:42:11;6.73;;;3.27;;
48002;SDS011;33768;48.578;11.574;2023-05-07T17:45:15;10.93;;;3.93;;
48002;SDS011;33768;48.578;11.574;2023-05-07T17:48:19;3.80;;;3.40;;
48002;SDS011;33768;48.578;11.574;2023-05-07T17:51:23;5.10;;;3.57;;
48002;SDS011;33768;48.578;11.574;2023-05-07T17:54:32;6.87;;;3.90;;
48002;SDS011;33768;48.578;11.574;2023-05-07T17:57:36;3.63;;;3.33;;
48002;SDS011;33768;48.578;11.574;2023-05-07T18:00:40;3.47;;;3.17;;
48002;SDS011;33768;48.578;11.574;2023-05-07T18:03:45;4.20;;;3.33;;
48002;SDS011;33768;48.578;11.574;2023-05-07T18:06:49;4.70;;;3.50;;
48002;SDS011;33768;48.578;11.574;2023-05-07T18:09:53;6.23;;;3.60;;
48002;SDS011;33768;48.578;11.574;2023-05-07T18:12:57;4.37;;;3.57;;
48002;SDS011;33768;48.578;11.574;2023-05-07T18:16:01;15.97;;;4.00;;
48002;SDS011;33768;48.578;11.574;2023-05-07T18:19:06;6.80;;;4.20;;
48002;SDS011;33768;48.578;11.574;2023-05-07T18:22:09;8.20;;;3.97;;
48002;SDS011;33768;48.578;11.574;2023-05-07T18:25:13;5.23;;;3.47;;
48002;SDS011;33768;48.578;11.574;2023-05-07T18:28:18;4.43;;;3.70;;
48002;SDS011;33768;48.578;11.574;2023-05-07T18:31:22;6.47;;;3.77;;
48002;SDS011;33768;48.578;11.574;2023-05-07T18:34:26;5.40;;;3.50;;